Airfield :
LOGIN :

Register | Disclaimer

   EN    FR    IT 

 










Legend :    VFR   Marginal VFR   IFR   Intensive IFR   Very Intensive IFR
Visi :
Ceiling :
>= 8 km
>= 3000ft
5 to 8 km
1000 to 3000 ft
1500m to 5 km
500 to 1000 ft
800 to 1500m
200 to 500 ft
< 800m
< 200 ft
Symbols :   Thunderstorms  Fog  Heavy snow  Heavy precipitations  Wind > 20 kt
SIGMETs :     Misc.  Thunderstorms  Icing  Turbulence  Mountain Waves  Volcanic Ashes






- Airport Elevation : 1247 ft
- IATA code : PRG


LKPR - Praha Ruzyne

CURRENT METAR :
  • 251600Z 08003KT CAVOK 11/10 Q1009 NOSIG

EXPIRED METARs :
  • 251530Z 09003KT CAVOK 12/11 Q1009 NOSIG
  • 251500Z 09006KT CAVOK 13/11 Q1009 NOSIG
  • 251430Z 08007KT CAVOK 14/10 Q1009 NOSIG
  • 251400Z 07006KT CAVOK 15/10 Q1009 NOSIG
  • 251330Z 12007KT 080V140 CAVOK 15/09 Q1009 NOSIG

TAF TAF LKPR
Valid from the 25 at 12:00 until the 26 at 18:00 UTC


251100Z 2512/2618 17007KT CAVOK
BECMG 2600/2602 2500 BR NSC
TEMPO 2602/2608 1300 BCFG SCT003
PROB30
TEMPO 2603/2606 0650 FG OVC003
BECMG 2608/2610 9999 BKN017
BECMG 2612/2615 31004KT



MET'MAP, your aeronautical weather chart ! - Copyright ORBIFLY December 2007 - Disclaimer

ORBIFLY MET'MAP TEAM :

Programming & Development : Alexandra Zaïnal
Concept & original design : Baudouin d'Aumeries
Assistance for programming : Marc-Olivier Méhu
Technical & hardware support : Manuel Goepfert

Contact : metmap@orbifly.com




SOURCES & CREDITS :

   NOAA